Time;durP1;ratioP1;P1;durP2;ratioP2;P2;SDS_P1;SDS_P2;PMS_P1;PMS_P2;Temp;Humidity;BMP_temperature;BMP_pressure;BME280_temperature;BME280_humidity;BME280_pressure;Samples;Min_cycle;Max_cycle;Signal;HPM_P1;HPM_P2
2022/10/29 00:01:54;;;;;;;25.98;7.30;;;16.40;99.90;;;;;;5045339;28;25063;-75
2022/10/29 00:04:20;;;;;;;26.27;7.88;;;16.30;99.90;;;;;;5072794;28;25115;-75
2022/10/29 00:06:47;;;;;;;34.08;8.50;;;16.30;99.90;;;;;;5071856;28;25046;-76
2022/10/29 00:09:13;;;;;;;16.00;7.70;;;16.30;99.90;;;;;;5066250;28;25079;-73
2022/10/29 00:11:39;;;;;;;20.60;7.65;;;16.40;99.90;;;;;;5068638;28;25084;-74
2022/10/29 00:14:04;;;;;;;16.65;7.72;;;16.40;99.90;;;;;;5065947;28;25088;-76
2022/10/29 00:16:36;;;;;;;29.55;7.57;;;16.40;99.90;;;;;;5069233;28;25130;-74
2022/10/29 00:19:03;;;;;;;19.40;7.97;;;16.50;99.90;;;;;;5069709;28;25073;-75
2022/10/29 00:21:29;;;;;;;29.08;8.10;;;16.40;99.90;;;;;;5065576;28;25088;-80
2022/10/29 00:23:56;;;;;;;23.90;7.63;;;16.30;99.90;;;;;;5059504;28;25092;-77
2022/10/29 00:26:23;;;;;;;24.27;8.30;;;16.30;99.90;;;;;;5053963;28;25042;-76
2022/10/29 00:28:54;;;;;;;18.90;7.65;;;16.40;99.90;;;;;;5051076;28;25091;-80
2022/10/29 00:31:23;;;;;;;24.88;7.47;;;16.30;99.90;;;;;;5071715;28;25101;-75
2022/10/29 00:33:49;;;;;;;22.20;7.60;;;16.30;99.90;;;;;;5070917;28;25120;-77
2022/10/29 00:36:17;;;;;;;28.40;7.30;;;16.20;99.90;;;;;;5069978;28;25143;-74
2022/10/29 00:38:44;;;;;;;18.90;8.40;;;16.20;99.90;;;;;;5067828;28;25097;-78
2022/10/29 00:41:12;;;;;;;22.98;7.47;;;16.30;99.90;;;;;;5065027;28;25160;-77
2022/10/29 00:43:40;;;;;;;17.77;6.78;;;16.40;99.90;;;;;;5048986;28;25068;-78
2022/10/29 00:46:10;;;;;;;23.55;7.50;;;16.40;99.90;;;;;;5067790;28;25450;-73
2022/10/29 00:48:41;;;;;;;23.38;7.60;;;16.20;99.90;;;;;;5064078;28;25096;-74
2022/10/29 00:51:09;;;;;;;14.73;7.22;;;16.10;99.90;;;;;;5063597;28;25053;-75
2022/10/29 00:53:38;;;;;;;18.02;6.70;;;16.00;99.90;;;;;;5071746;28;25073;-72
2022/10/29 00:56:04;;;;;;;23.63;7.88;;;15.90;99.90;;;;;;5054059;28;25101;-74
2022/10/29 00:58:30;;;;;;;20.08;7.53;;;15.90;99.90;;;;;;5072912;28;25072;-74
2022/10/29 01:00:58;;;;;;;20.58;7.85;;;16.00;99.90;;;;;;5066242;28;25058;-73
2022/10/29 01:03:23;;;;;;;19.80;7.88;;;16.10;99.90;;;;;;5060674;28;25065;-74
2022/10/29 01:05:51;;;;;;;20.42;6.72;;;16.00;99.90;;;;;;5067588;28;25078;-75
2022/10/29 01:08:17;;;;;;;23.88;7.55;;;15.90;99.90;;;;;;5060047;28;25078;-74
2022/10/29 01:10:45;;;;;;;16.48;7.63;;;15.80;99.90;;;;;;5061750;28;25105;-75
2022/10/29 01:13:31;;;;;;;17.15;7.18;;;16.00;99.90;;;;;;5051410;28;25080;-74
2022/10/29 01:16:05;;;;;;;22.42;6.88;;;15.90;99.90;;;;;;5058398;28;25082;-76
2022/10/29 01:18:36;;;;;;;21.90;7.60;;;15.90;99.90;;;;;;5061067;28;25078;-75
2022/10/29 01:21:34;;;;;;;21.00;7.10;;;15.90;99.90;;;;;;5063851;28;25081;-75
2022/10/29 01:24:05;;;;;;;21.80;7.85;;;15.80;99.90;;;;;;5072629;28;25062;-74
2022/10/29 01:27:02;;;;;;;15.65;7.03;;;15.60;99.90;;;;;;5072436;28;25072;-76
2022/10/29 01:29:59;;;;;;;18.88;7.55;;;15.60;99.90;;;;;;5066798;28;25134;-76
2022/10/29 01:32:48;;;;;;;17.05;7.43;;;15.60;99.90;;;;;;5059483;28;25045;-75
2022/10/29 01:35:21;;;;;;;25.75;8.60;;;15.70;99.90;;;;;;5069601;28;25166;-74
2022/10/29 01:37:54;;;;;;;15.00;7.25;;;15.70;99.90;;;;;;5057904;28;25099;-75
2022/10/29 01:40:20;;;;;;;16.40;6.38;;;15.80;99.90;;;;;;5064210;28;25074;-78
2022/10/29 01:43:03;;;;;;;19.75;7.88;;;15.70;99.90;;;;;;5061035;28;25134;-73
2022/10/29 01:45:35;;;;;;;21.83;7.22;;;15.70;99.90;;;;;;5067473;28;25063;-77
2022/10/29 01:48:08;;;;;;;17.08;7.75;;;15.80;99.90;;;;;;5070897;28;25140;-76
2022/10/29 01:50:37;;;;;;;16.83;6.60;;;15.70;99.90;;;;;;5070622;28;25080;-75
2022/10/29 01:53:04;;;;;;;16.83;6.95;;;15.80;99.90;;;;;;5069830;28;25075;-78
2022/10/29 01:55:35;;;;;;;16.63;7.60;;;15.80;99.90;;;;;;5076776;28;25066;-74
2022/10/29 01:58:02;;;;;;;14.65;7.70;;;15.80;99.90;;;;;;5076963;28;25046;-75
2022/10/29 02:00:48;;;;;;;19.25;7.15;;;15.70;99.90;;;;;;5070748;28;25077;-77
2022/10/29 02:03:32;;;;;;;19.73;7.07;;;15.70;99.90;;;;;;5063797;28;25078;-78
2022/10/29 02:06:10;;;;;;;17.35;7.47;;;15.60;99.90;;;;;;5071776;28;25054;-76
2022/10/29 02:08:44;;;;;;;20.38;7.45;;;15.50;99.90;;;;;;5061821;28;25068;-73
2022/10/29 02:11:22;;;;;;;22.42;8.10;;;15.60;99.90;;;;;;5058389;28;25105;-75
2022/10/29 02:14:01;;;;;;;27.70;7.75;;;15.60;99.90;;;;;;5069881;28;25051;-73
2022/10/29 02:16:28;;;;;;;16.75;6.85;;;15.50;99.90;;;;;;5066341;28;25082;-74
2022/10/29 02:18:54;;;;;;;20.02;8.07;;;15.40;99.90;;;;;;5058527;28;25139;-75
2022/10/29 02:21:20;;;;;;;15.95;7.85;;;15.40;99.90;;;;;;5062384;28;25061;-75
2022/10/29 02:23:46;;;;;;;14.32;7.75;;;15.40;99.90;;;;;;5070064;28;25091;-74
2022/10/29 02:26:12;;;;;;;16.20;7.80;;;15.40;99.90;;;;;;5042764;28;25087;-77
2022/10/29 02:28:38;;;;;;;18.65;7.50;;;15.40;99.90;;;;;;5062518;28;25075;-74
2022/10/29 02:31:04;;;;;;;15.40;6.60;;;15.50;99.90;;;;;;5067093;28;25138;-76
2022/10/29 02:33:30;;;;;;;12.32;6.72;;;15.60;99.90;;;;;;5060999;28;25060;-77
2022/10/29 02:35:56;;;;;;;19.20;6.60;;;15.70;99.90;;;;;;5075922;28;25085;-72
2022/10/29 02:38:21;;;;;;;18.27;6.90;;;15.70;99.90;;;;;;5070180;28;25075;-77
2022/10/29 02:40:47;;;;;;;13.70;6.60;;;15.80;99.90;;;;;;5062142;28;25059;-76
2022/10/29 02:43:12;;;;;;;12.13;6.28;;;15.70;99.90;;;;;;5068382;28;25062;-76
2022/10/29 02:45:38;;;;;;;13.50;7.28;;;15.60;99.90;;;;;;5055636;28;25057;-76
2022/10/29 02:48:04;;;;;;;17.48;7.75;;;15.40;99.90;;;;;;5066561;28;25075;-75
2022/10/29 02:50:30;;;;;;;21.65;8.15;;;15.50;99.90;;;;;;5067576;28;25064;-75
2022/10/29 02:52:55;;;;;;;17.15;7.32;;;15.30;99.90;;;;;;5050062;28;25060;-73
2022/10/29 02:55:21;;;;;;;17.67;7.85;;;15.50;99.90;;;;;;5068120;28;25078;-77
2022/10/29 02:57:46;;;;;;;15.32;6.88;;;15.50;99.90;;;;;;5067067;28;25075;-75
2022/10/29 03:00:13;;;;;;;20.38;8.02;;;15.50;99.90;;;;;;5064234;28;25133;-76
2022/10/29 03:02:39;;;;;;;14.77;6.65;;;15.50;99.90;;;;;;5053174;28;25077;-73
2022/10/29 03:05:05;;;;;;;14.75;7.15;;;15.60;99.90;;;;;;5066047;28;25128;-74
2022/10/29 03:07:35;;;;;;;17.92;6.93;;;15.50;99.90;;;;;;5052015;28;25058;-74
2022/10/29 03:10:05;;;;;;;15.50;7.20;;;15.40;99.90;;;;;;5069813;28;25091;-76
2022/10/29 03:12:30;;;;;;;14.93;7.10;;;15.40;99.90;;;;;;5064296;28;25079;-76
2022/10/29 03:14:56;;;;;;;20.80;6.22;;;15.50;99.90;;;;;;5068473;28;25096;-74
2022/10/29 03:17:22;;;;;;;14.63;6.75;;;15.50;99.90;;;;;;5063992;28;25056;-73
2022/10/29 03:19:47;;;;;;;20.70;7.60;;;15.40;99.90;;;;;;5063415;28;25151;-75
2022/10/29 03:22:13;;;;;;;15.90;7.30;;;15.40;99.90;;;;;;5063560;28;25067;-76
2022/10/29 03:24:38;;;;;;;16.77;7.70;;;15.30;99.90;;;;;;5060539;28;25069;-74
2022/10/29 03:27:04;;;;;;;18.63;7.10;;;15.30;99.90;;;;;;5069189;28;25116;-75
2022/10/29 03:29:30;;;;;;;14.60;7.00;;;15.30;99.90;;;;;;5067230;28;25071;-74
2022/10/29 03:31:55;;;;;;;16.30;7.50;;;15.30;99.90;;;;;;5068864;28;25078;-73
2022/10/29 03:34:21;;;;;;;17.35;7.07;;;15.30;99.90;;;;;;5064454;28;25112;-76
2022/10/29 03:36:47;;;;;;;14.32;6.82;;;15.20;99.90;;;;;;5076532;28;25086;-74
2022/10/29 03:39:12;;;;;;;19.25;7.20;;;15.20;99.90;;;;;;5065699;28;25068;-75
2022/10/29 03:41:38;;;;;;;18.25;7.10;;;15.20;99.90;;;;;;5071506;28;25078;-75
2022/10/29 03:44:04;;;;;;;17.92;6.65;;;15.20;99.90;;;;;;5070232;28;25052;-77
2022/10/29 03:46:29;;;;;;;18.77;6.40;;;15.30;99.90;;;;;;5062620;28;25118;-74
2022/10/29 03:48:55;;;;;;;14.20;7.43;;;15.20;99.90;;;;;;5068896;28;25063;-74
2022/10/29 03:51:20;;;;;;;19.00;7.40;;;15.30;99.90;;;;;;5063950;28;25112;-77
2022/10/29 03:53:46;;;;;;;22.52;7.25;;;15.20;99.90;;;;;;5060375;28;25128;-75
2022/10/29 03:56:11;;;;;;;11.30;5.88;;;15.40;99.90;;;;;;5065984;28;25056;-75
2022/10/29 03:58:37;;;;;;;19.55;7.20;;;15.40;99.90;;;;;;5059788;28;25093;-77
2022/10/29 04:01:05;;;;;;;11.15;6.70;;;15.30;99.90;;;;;;5070431;28;25078;-74
2022/10/29 04:03:33;;;;;;;15.90;6.82;;;15.30;99.90;;;;;;5057494;28;25070;-80
2022/10/29 04:06:00;;;;;;;17.88;8.05;;;15.40;99.90;;;;;;5065073;28;25064;-71
2022/10/29 04:08:26;;;;;;;15.30;7.30;;;15.40;99.90;;;;;;5069747;28;25059;-73
2022/10/29 04:10:52;;;;;;;16.50;7.22;;;15.50;99.90;;;;;;5068467;28;25161;-72
2022/10/29 04:13:18;;;;;;;14.75;7.47;;;15.40;99.90;;;;;;5065911;28;25064;-72
2022/10/29 04:15:44;;;;;;;14.18;7.35;;;15.30;99.90;;;;;;5071984;28;25067;-72
2022/10/29 04:18:10;;;;;;;17.15;6.60;;;15.40;99.90;;;;;;5066356;28;25062;-71
2022/10/29 04:20:38;;;;;;;15.38;7.03;;;15.50;99.90;;;;;;5060688;28;25081;-71
2022/10/29 04:23:03;;;;;;;13.95;7.15;;;15.60;99.90;;;;;;5052558;28;24730;-72
2022/10/29 04:25:29;;;;;;;19.50;7.93;;;15.60;99.90;;;;;;5063406;28;25129;-72
2022/10/29 04:27:55;;;;;;;16.70;7.63;;;15.50;99.90;;;;;;5048063;28;25096;-72
2022/10/29 04:30:22;;;;;;;18.48;7.45;;;15.50;99.90;;;;;;5058522;28;25068;-72
2022/10/29 04:32:48;;;;;;;16.23;6.65;;;15.60;99.90;;;;;;5068571;28;25084;-72
2022/10/29 04:35:14;;;;;;;16.25;9.32;;;15.50;99.90;;;;;;5065341;28;25095;-72
2022/10/29 04:37:39;;;;;;;21.70;7.28;;;15.50;99.90;;;;;;5055735;28;25105;-72
2022/10/29 04:40:05;;;;;;;18.73;7.80;;;15.50;99.90;;;;;;5062211;28;25052;-70
2022/10/29 04:42:38;;;;;;;14.25;7.35;;;15.50;99.90;;;;;;5054447;28;25124;-71
2022/10/29 04:45:06;;;;;;;18.95;7.63;;;15.50;99.90;;;;;;5069999;28;25103;-73
2022/10/29 04:47:32;;;;;;;16.95;7.72;;;15.60;99.90;;;;;;5056917;28;25105;-72
2022/10/29 04:49:57;;;;;;;17.38;7.75;;;15.80;99.90;;;;;;5064016;28;25076;-73
2022/10/29 04:52:24;;;;;;;17.58;7.43;;;15.90;99.90;;;;;;5059906;28;25073;-73
2022/10/29 04:54:49;;;;;;;17.73;8.98;;;16.10;99.90;;;;;;5059624;28;25071;-72
2022/10/29 04:57:15;;;;;;;12.70;7.45;;;16.00;99.90;;;;;;5060182;28;25115;-72
2022/10/29 04:59:40;;;;;;;15.23;8.05;;;16.10;99.90;;;;;;5038855;28;25091;-72
2022/10/29 05:02:06;;;;;;;25.88;11.85;;;16.10;99.90;;;;;;5057576;28;25127;-73
2022/10/29 05:04:32;;;;;;;20.92;9.50;;;16.10;99.90;;;;;;5053830;28;25095;-72
2022/10/29 05:06:58;;;;;;;21.88;8.00;;;16.20;99.90;;;;;;5054660;28;25077;-72
2022/10/29 05:09:23;;;;;;;18.90;8.35;;;16.20;99.90;;;;;;5056830;28;25155;-72
2022/10/29 05:11:49;;;;;;;13.95;7.45;;;16.20;99.90;;;;;;5062559;28;25058;-73
2022/10/29 05:14:14;;;;;;;23.20;7.75;;;16.20;99.90;;;;;;5054050;28;25073;-72
2022/10/29 05:16:40;;;;;;;20.17;9.02;;;16.20;99.90;;;;;;5056109;28;25104;-74
2022/10/29 05:19:05;;;;;;;25.75;9.52;;;16.10;99.90;;;;;;5050280;28;25069;-73
2022/10/29 05:21:31;;;;;;;14.75;7.85;;;16.10;99.90;;;;;;5038598;28;25059;-72
2022/10/29 05:23:57;;;;;;;21.13;9.13;;;16.10;99.90;;;;;;5047469;28;25070;-72
2022/10/29 05:26:23;;;;;;;16.65;8.40;;;16.00;99.90;;;;;;5056871;28;25057;-73
2022/10/29 05:28:52;;;;;;;24.42;8.50;;;16.00;99.90;;;;;;5056586;28;25159;-72
2022/10/29 05:31:18;;;;;;;18.73;8.82;;;16.10;99.90;;;;;;5051616;28;25069;-73
2022/10/29 05:33:44;;;;;;;16.48;9.52;;;16.20;99.90;;;;;;5063891;28;25124;-73
2022/10/29 05:36:10;;;;;;;20.33;9.98;;;16.30;99.90;;;;;;5054355;28;25067;-73
2022/10/29 05:38:36;;;;;;;25.23;9.10;;;16.30;99.90;;;;;;5058007;28;25142;-73
2022/10/29 05:41:01;;;;;;;23.65;10.23;;;16.30;99.90;;;;;;5061730;28;25058;-72
2022/10/29 05:43:27;;;;;;;19.80;9.68;;;16.30;99.90;;;;;;5055335;28;25051;-73
2022/10/29 05:45:53;;;;;;;21.27;10.52;;;16.40;99.90;;;;;;5054724;28;25135;-73
2022/10/29 05:48:18;;;;;;;22.67;10.85;;;16.50;99.90;;;;;;5058362;28;25049;-73
2022/10/29 05:50:44;;;;;;;21.85;10.05;;;16.50;99.90;;;;;;5063686;28;25111;-72
2022/10/29 05:53:12;;;;;;;29.00;12.77;;;16.50;99.90;;;;;;5058777;28;25081;-72
2022/10/29 05:55:38;;;;;;;25.15;11.52;;;16.40;99.90;;;;;;5060456;28;25060;-73
2022/10/29 05:58:08;;;;;;;27.15;11.77;;;16.40;99.90;;;;;;5055554;28;25100;-73
2022/10/29 06:00:37;;;;;;;23.92;10.55;;;16.50;99.90;;;;;;5062392;28;25052;-73
2022/10/29 06:03:03;;;;;;;18.58;9.65;;;16.50;99.90;;;;;;5048755;28;25051;-74
2022/10/29 06:05:29;;;;;;;18.88;10.43;;;16.50;99.90;;;;;;5061577;28;25076;-74
2022/10/29 06:07:56;;;;;;;27.20;11.25;;;16.50;99.90;;;;;;5061074;28;25056;-72
2022/10/29 06:10:23;;;;;;;29.17;11.05;;;16.40;99.90;;;;;;5062340;28;25166;-72
2022/10/29 06:12:48;;;;;;;20.88;11.52;;;16.40;99.90;;;;;;5054285;28;25138;-73
2022/10/29 06:15:15;;;;;;;27.33;12.73;;;16.40;99.90;;;;;;5058080;28;25080;-72
2022/10/29 06:17:42;;;;;;;23.90;11.80;;;16.40;99.90;;;;;;5051689;28;25056;-72
2022/10/29 06:20:08;;;;;;;23.45;12.65;;;16.60;99.90;;;;;;5058109;28;25088;-73
2022/10/29 06:22:34;;;;;;;28.05;12.93;;;16.60;99.90;;;;;;5060688;28;25093;-72
2022/10/29 06:25:00;;;;;;;21.83;13.15;;;16.50;99.90;;;;;;5059206;28;25018;-73
2022/10/29 06:27:26;;;;;;;28.38;13.05;;;16.50;99.90;;;;;;5058087;28;24924;-73
2022/10/29 06:29:51;;;;;;;34.15;14.80;;;16.60;99.90;;;;;;5050958;28;25078;-72
2022/10/29 06:32:17;;;;;;;30.67;13.82;;;16.70;99.90;;;;;;5060955;28;25109;-72
2022/10/29 06:34:42;;;;;;;26.73;12.45;;;16.70;99.90;;;;;;5053292;28;25079;-72
2022/10/29 06:37:08;;;;;;;35.95;14.75;;;16.60;99.90;;;;;;5055674;28;25087;-72
2022/10/29 06:39:33;;;;;;;36.13;14.60;;;16.80;99.90;;;;;;5062252;28;25059;-72
2022/10/29 06:41:59;;;;;;;40.22;13.50;;;16.80;99.90;;;;;;5072093;28;25140;-72
2022/10/29 06:44:24;;;;;;;28.70;14.45;;;16.90;99.90;;;;;;5047605;28;25057;-72
2022/10/29 06:46:50;;;;;;;27.15;12.65;;;16.90;99.90;;;;;;5061925;28;25085;-73
2022/10/29 06:49:15;;;;;;;30.15;14.80;;;17.00;99.90;;;;;;5058100;28;25098;-72
2022/10/29 06:51:41;;;;;;;32.03;13.40;;;17.10;99.90;;;;;;5060343;28;25081;-72
2022/10/29 06:54:07;;;;;;;29.35;12.68;;;17.20;99.90;;;;;;5062190;28;25067;-72
2022/10/29 06:56:33;;;;;;;30.35;12.70;;;17.30;99.90;;;;;;5062273;28;25063;-72
2022/10/29 06:58:59;;;;;;;31.65;13.57;;;17.20;99.90;;;;;;5054903;28;25105;-73
2022/10/29 07:01:27;;;;;;;34.33;13.85;;;17.30;99.90;;;;;;5043083;28;25116;-72
2022/10/29 07:03:53;;;;;;;30.00;12.93;;;17.40;99.90;;;;;;5057932;28;25121;-73
2022/10/29 07:06:19;;;;;;;30.38;13.75;;;17.50;99.90;;;;;;5061545;28;25121;-77
2022/10/29 07:08:44;;;;;;;34.13;14.30;;;17.50;99.90;;;;;;5061256;28;25106;-75
2022/10/29 07:11:10;;;;;;;32.33;14.82;;;17.50;99.90;;;;;;5060160;28;25060;-74
2022/10/29 07:13:36;;;;;;;28.90;13.00;;;17.60;99.90;;;;;;5057830;28;25164;-72
2022/10/29 07:16:01;;;;;;;31.95;14.60;;;17.60;99.90;;;;;;5059640;28;25069;-72
2022/10/29 07:18:27;;;;;;;31.75;14.45;;;17.50;99.90;;;;;;5056828;28;25072;-71
2022/10/29 07:20:52;;;;;;;30.25;15.93;;;17.50;99.90;;;;;;5056651;28;25140;-74
2022/10/29 07:23:18;;;;;;;34.17;13.75;;;17.60;99.90;;;;;;5034219;28;25064;-73
2022/10/29 07:25:44;;;;;;;31.70;13.48;;;17.60;99.90;;;;;;5058518;28;25096;-77
2022/10/29 07:28:12;;;;;;;27.52;13.60;;;17.60;99.90;;;;;;5064400;28;25048;-73
2022/10/29 07:30:38;;;;;;;34.35;13.70;;;17.60;99.90;;;;;;5058029;28;25264;-71
2022/10/29 07:33:04;;;;;;;29.23;13.70;;;17.70;99.90;;;;;;5060139;28;25061;-73
2022/10/29 07:35:29;;;;;;;23.83;12.68;;;17.80;99.90;;;;;;5063763;28;25159;-73
2022/10/29 07:37:59;;;;;;;33.38;13.95;;;17.90;99.90;;;;;;5065651;28;25066;-72
2022/10/29 07:40:25;;;;;;;28.33;13.23;;;18.00;99.90;;;;;;5062753;28;25147;-72
2022/10/29 07:42:51;;;;;;;26.58;13.02;;;18.00;99.90;;;;;;5059420;28;25188;-72
2022/10/29 07:45:17;;;;;;;22.30;12.02;;;18.10;99.90;;;;;;5066047;28;25103;-72
2022/10/29 07:47:42;;;;;;;31.92;12.10;;;18.10;99.90;;;;;;5069977;28;25064;-74
2022/10/29 07:50:08;;;;;;;29.75;14.07;;;18.10;99.90;;;;;;5066333;28;25114;-73
2022/10/29 07:52:34;;;;;;;26.33;12.68;;;18.20;99.90;;;;;;5065297;28;26185;-73
2022/10/29 07:55:01;;;;;;;24.27;13.27;;;18.20;99.90;;;;;;5063263;28;25128;-73
2022/10/29 07:57:27;;;;;;;31.90;13.35;;;18.40;99.90;;;;;;5060402;28;25139;-73
2022/10/29 07:59:53;;;;;;;18.55;11.30;;;18.50;99.90;;;;;;5060833;28;25066;-72
2022/10/29 08:02:18;;;;;;;26.40;12.93;;;18.60;99.90;;;;;;5069168;28;25053;-72
2022/10/29 08:04:44;;;;;;;29.65;12.93;;;18.70;99.90;;;;;;5060789;28;25181;-73
2022/10/29 08:07:09;;;;;;;30.67;12.55;;;18.60;99.90;;;;;;5059270;28;25168;-73
2022/10/29 08:09:35;;;;;;;30.15;14.05;;;18.70;99.90;;;;;;5062177;28;25087;-72
2022/10/29 08:12:01;;;;;;;28.85;13.20;;;18.70;99.90;;;;;;5057756;28;25100;-73
2022/10/29 08:14:26;;;;;;;31.02;12.55;;;18.90;99.90;;;;;;5060999;28;25065;-73
2022/10/29 08:16:53;;;;;;;31.25;13.05;;;18.80;99.90;;;;;;5057561;28;25081;-72
2022/10/29 08:19:19;;;;;;;31.42;13.32;;;19.10;99.90;;;;;;5059992;28;25163;-73
2022/10/29 08:21:45;;;;;;;31.70;12.70;;;19.20;99.90;;;;;;5041397;28;25145;-73
2022/10/29 08:24:11;;;;;;;23.33;12.25;;;19.10;99.90;;;;;;5062471;28;25099;-73
2022/10/29 08:26:37;;;;;;;26.88;13.02;;;19.10;99.90;;;;;;5040560;28;25118;-73
2022/10/29 08:29:03;;;;;;;20.02;12.30;;;19.30;99.90;;;;;;5059832;28;25149;-73
2022/10/29 08:31:28;;;;;;;31.65;12.45;;;19.20;99.90;;;;;;5064066;28;25081;-72
2022/10/29 08:33:54;;;;;;;24.85;11.25;;;19.30;99.90;;;;;;5064217;28;25065;-72
2022/10/29 08:36:20;;;;;;;27.70;12.98;;;19.30;99.90;;;;;;5062072;28;25170;-74
2022/10/29 08:38:48;;;;;;;20.17;11.00;;;19.40;99.90;;;;;;5061470;28;25096;-73
2022/10/29 08:41:33;;;;;;;33.20;11.88;;;19.40;99.90;;;;;;5045188;28;25096;-72
2022/10/29 08:44:40;;;;;;;23.15;11.57;;;19.30;99.90;;;;;;5055185;28;25143;-72
2022/10/29 08:47:22;;;;;;;25.58;12.88;;;19.30;99.90;;;;;;4995153;28;25050;-73
2022/10/29 08:49:50;;;;;;;27.90;11.68;;;19.20;99.90;;;;;;4995208;28;25050;-73
2022/10/29 08:52:23;;;;;;;25.45;11.93;;;19.30;99.90;;;;;;5035305;28;25057;-72
2022/10/29 08:55:12;;;;;;;26.55;11.07;;;19.30;99.90;;;;;;5070489;28;25067;-72
2022/10/29 08:57:43;;;;;;;22.83;11.60;;;19.20;99.90;;;;;;5066320;28;25071;-72
2022/10/29 09:00:17;;;;;;;23.77;10.33;;;19.20;99.90;;;;;;5067258;28;25314;-71
2022/10/29 09:02:43;;;;;;;26.00;12.00;;;19.20;99.90;;;;;;5065209;28;25072;-73
2022/10/29 09:05:19;;;;;;;20.02;10.50;;;19.30;99.90;;;;;;5041596;28;25170;-72
2022/10/29 09:08:03;;;;;;;27.92;12.73;;;19.30;99.90;;;;;;5057832;28;25101;-74
2022/10/29 09:10:49;;;;;;;26.23;11.07;;;19.20;99.90;;;;;;5043166;28;25053;-72
2022/10/29 09:13:41;;;;;;;23.35;12.55;;;19.10;99.90;;;;;;5058525;28;25101;-71
2022/10/29 09:16:32;;;;;;;29.13;12.00;;;19.20;99.90;;;;;;5059061;28;25067;-72
2022/10/29 09:19:05;;;;;;;25.58;10.88;;;19.10;99.90;;;;;;5054979;28;25125;-72
2022/10/29 09:21:37;;;;;;;21.85;11.90;;;19.10;99.90;;;;;;5057713;28;25059;-72
2022/10/29 09:24:48;;;;;;;26.48;10.82;;;19.20;99.90;;;;;;5055173;28;25142;-72
2022/10/29 09:27:21;;;;;;;24.58;11.57;;;19.10;99.90;;;;;;5054513;28;25110;-73
2022/10/29 09:30:04;;;;;;;23.98;11.73;;;19.10;99.90;;;;;;5059982;28;25081;-72
2022/10/29 09:32:38;;;;;;;25.95;12.32;;;18.90;99.90;;;;;;5061776;28;25151;-72
2022/10/29 09:35:16;;;;;;;30.15;13.05;;;18.80;99.90;;;;;;5071463;28;25055;-72
2022/10/29 09:37:54;;;;;;;23.98;11.32;;;18.90;99.90;;;;;;5064852;28;25063;-72
2022/10/29 09:40:38;;;;;;;30.27;11.57;;;19.00;99.90;;;;;;5063988;28;25062;-73
2022/10/29 09:43:50;;;;;;;24.80;11.15;;;19.10;99.90;;;;;;5034986;28;25126;-73
2022/10/29 09:46:40;;;;;;;34.88;11.20;;;19.20;99.90;;;;;;5022400;28;25063;-72
2022/10/29 09:49:33;;;;;;;26.10;11.57;;;19.20;99.90;;;;;;5056369;28;25104;-73
2022/10/29 09:52:18;;;;;;;;;;;19.20;99.90;;;;;;5041411;28;25120;-71
2022/10/29 09:54:44;;;;;;;20.23;9.32;;;19.30;99.90;;;;;;5054317;28;25088;-72
2022/10/29 09:57:20;;;;;;;23.73;10.52;;;19.30;99.90;;;;;;5055148;28;25073;-72
2022/10/29 09:59:59;;;;;;;20.05;10.45;;;19.30;99.90;;;;;;5053882;28;25063;-72
2022/10/29 10:02:37;;;;;;;30.45;11.82;;;19.30;99.90;;;;;;5059790;28;25079;-72
2022/10/29 10:05:12;;;;;;;24.98;10.80;;;19.30;99.90;;;;;;5052213;28;25076;-74
2022/10/29 10:07:38;;;;;;;24.08;10.90;;;19.30;99.90;;;;;;5059433;28;25080;-73
2022/10/29 10:10:06;;;;;;;20.92;9.63;;;19.40;99.90;;;;;;5069769;28;25099;-73
2022/10/29 10:12:35;;;;;;;29.70;9.70;;;19.60;99.90;;;;;;5042339;28;25157;-73
2022/10/29 10:15:14;;;;;;;19.23;8.55;;;19.40;99.90;;;;;;5058663;28;25076;-72
2022/10/29 10:17:55;;;;;;;24.17;9.13;;;19.30;99.90;;;;;;5066836;28;25078;-73
2022/10/29 10:20:30;;;;;;;24.70;9.65;;;19.40;99.90;;;;;;5068159;28;25167;-78
2022/10/29 10:22:56;;;;;;;17.42;8.95;;;19.60;99.90;;;;;;5055414;28;25049;-77
2022/10/29 10:25:42;;;;;;;18.92;8.27;;;19.60;99.90;;;;;;5064614;28;25057;-77
2022/10/29 10:28:21;;;;;;;17.80;7.80;;;19.60;99.90;;;;;;5056215;28;25083;-78
2022/10/29 10:31:14;;;;;;;15.35;7.97;;;19.60;99.90;;;;;;5068824;28;25068;-78
2022/10/29 10:33:53;;;;;;;19.48;7.28;;;19.90;99.90;;;;;;5056134;28;25067;-76
2022/10/29 10:36:28;;;;;;;19.35;8.82;;;20.30;99.90;;;;;;5059828;28;25054;-75
2022/10/29 10:38:56;;;;;;;19.05;7.30;;;20.50;99.90;;;;;;5055439;28;25135;-77
2022/10/29 10:41:29;;;;;;;15.43;6.85;;;20.60;99.90;;;;;;5053964;28;25081;-76
2022/10/29 10:44:00;;;;;;;14.32;6.57;;;20.70;99.90;;;;;;5054597;28;25090;-76
2022/10/29 10:46:39;;;;;;;14.27;5.53;;;20.60;99.90;;;;;;5055538;28;25072;-77
2022/10/29 10:49:19;;;;;;;21.05;7.13;;;20.60;99.90;;;;;;5056308;28;25084;-78
2022/10/29 10:51:50;;;;;;;15.75;6.50;;;20.60;99.90;;;;;;5058513;28;25064;-76
2022/10/29 10:54:28;;;;;;;14.38;6.72;;;20.60;99.90;;;;;;5055100;28;25055;-75
2022/10/29 10:57:20;;;;;;;15.57;6.55;;;20.70;99.90;;;;;;5061762;28;25059;-79
2022/10/29 11:00:06;;;;;;;12.80;5.45;;;20.80;99.90;;;;;;5055677;28;24718;-78
2022/10/29 11:02:43;;;;;;;12.85;6.03;;;20.80;99.90;;;;;;5056274;28;25090;-75
2022/10/29 11:05:16;;;;;;;14.15;6.30;;;20.60;99.90;;;;;;5061901;28;25081;-78
2022/10/29 11:08:08;;;;;;;9.32;5.45;;;20.50;99.90;;;;;;5065851;28;25159;-77
2022/10/29 11:10:40;;;;;;;17.02;6.72;;;20.50;99.90;;;;;;5061485;28;25055;-77
2022/10/29 11:13:14;;;;;;;15.05;5.63;;;20.60;99.90;;;;;;5063862;28;25055;-78
2022/10/29 11:16:07;;;;;;;15.70;6.10;;;20.60;99.90;;;;;;5064480;28;25060;-75
2022/10/29 11:18:55;;;;;;;19.42;6.63;;;20.70;99.90;;;;;;5044694;28;25061;-74
2022/10/29 11:21:27;;;;;;;19.67;6.72;;;20.70;99.90;;;;;;5064747;28;25103;-77
2022/10/29 11:23:58;;;;;;;;;;;20.70;99.90;;;;;;5065739;28;25133;-77
2022/10/29 11:26:43;;;;;;;17.45;6.78;;;20.80;99.90;;;;;;5063855;28;24082;-75
2022/10/29 11:29:12;;;;;;;15.80;5.95;;;21.00;99.90;;;;;;5062967;28;25151;-75
2022/10/29 11:31:46;;;;;;;11.18;6.07;;;20.90;99.90;;;;;;5069653;28;25105;-78
2022/10/29 11:34:27;;;;;;;14.85;6.72;;;21.00;99.90;;;;;;5057121;28;25092;-77
2022/10/29 11:37:13;;;;;;;15.52;5.95;;;21.10;99.90;;;;;;5066809;28;25135;-75
2022/10/29 11:40:01;;;;;;;15.30;5.90;;;21.30;99.90;;;;;;5068750;28;25172;-75
2022/10/29 11:42:26;;;;;;;13.85;5.65;;;21.60;99.90;;;;;;5061676;28;25136;-75
2022/10/29 11:44:52;;;;;;;9.75;4.95;;;21.80;99.90;;;;;;5049360;28;25160;-78
2022/10/29 11:47:33;;;;;;;12.82;5.68;;;22.10;99.90;;;;;;5062502;28;25066;-77
2022/10/29 11:50:02;;;;;;;12.57;5.38;;;22.40;99.90;;;;;;5057388;28;25074;-77
2022/10/29 11:52:57;;;;;;;12.60;5.13;;;22.70;99.90;;;;;;5059852;28;25077;-76
2022/10/29 11:55:35;;;;;;;9.52;4.68;;;23.20;99.90;;;;;;5065137;28;25079;-75
2022/10/29 11:58:30;;;;;;;11.40;5.50;;;23.30;99.90;;;;;;5057299;28;25070;-75
2022/10/29 12:01:05;;;;;;;8.45;5.03;;;23.60;99.90;;;;;;5057611;28;25079;-75
2022/10/29 12:03:40;;;;;;;15.55;4.43;;;23.70;99.90;;;;;;5068868;28;25151;-75
2022/10/29 12:06:41;;;;;;;10.80;4.68;;;23.80;99.90;;;;;;5063000;28;25092;-77
2022/10/29 12:09:37;;;;;;;13.27;4.07;;;23.80;99.90;;;;;;5036900;28;25162;-76
2022/10/29 12:12:23;;;;;;;15.60;4.45;;;24.00;99.90;;;;;;5050315;28;25111;-75
2022/10/29 12:15:01;;;;;;;13.15;4.60;;;23.90;99.90;;;;;;5065847;28;25103;-75
2022/10/29 12:17:36;;;;;;;11.73;5.25;;;23.80;99.90;;;;;;5071858;28;25091;-76
2022/10/29 12:20:33;;;;;;;9.82;4.30;;;23.50;99.90;;;;;;5064384;28;25059;-76
2022/10/29 12:23:24;;;;;;;11.50;5.10;;;23.70;99.90;;;;;;5058951;28;25058;-77
2022/10/29 12:26:02;;;;;;;15.77;5.18;;;23.90;99.90;;;;;;5066925;28;25126;-74
2022/10/29 12:28:43;;;;;;;21.00;4.60;;;24.10;99.90;;;;;;5068677;28;25078;-75
2022/10/29 12:31:20;;;;;;;12.23;5.18;;;23.70;99.90;;;;;;5066067;28;25105;-74
2022/10/29 12:34:04;;;;;;;18.13;5.03;;;23.30;99.90;;;;;;5066477;28;25072;-76
2022/10/29 12:36:41;;;;;;;14.32;4.50;;;23.10;99.90;;;;;;5071198;28;25101;-74
2022/10/29 12:39:17;;;;;;;11.32;5.15;;;23.10;99.90;;;;;;5078232;28;25091;-79
2022/10/29 12:41:47;;;;;;;12.80;4.22;;;23.30;99.90;;;;;;5060128;28;25125;-76
2022/10/29 12:44:43;;;;;;;12.52;4.20;;;23.40;99.90;;;;;;5068043;28;25067;-75
2022/10/29 12:47:27;;;;;;;12.10;4.10;;;23.50;99.90;;;;;;5042963;28;25099;-74
2022/10/29 12:50:25;;;;;;;13.07;4.03;;;23.60;99.90;;;;;;5065613;28;25060;-74
2022/10/29 12:53:05;;;;;;;12.60;3.75;;;23.70;99.90;;;;;;5029479;28;25120;-74
2022/10/29 12:55:32;;;;;;;14.63;4.03;;;23.90;99.90;;;;;;5072074;28;25050;-77